Agios_nektarios — SW6453 — position and weather

sailwx.info

Track history (hours):
 
Tides and Currents Weather Stations Pressure Air Temp Water Temp Dewpoint Dewpoint Depression Visibility Wind Speed Wind Dir Waves Ship Positions

Agios_nektarios

Last reported at 2018-Feb-21 19:28 UTC. Time now 2018-Feb-21 19:46 UTC.
Position N 37°58' E 023°37'.

Length 53 m; draft 4.9 m.

Type: Tanker. MMSI: 237183800.

Date/timePositionNaut miles runAvg speedWind from/ knotsBaromVisibWave heightAir tempDewpointWater temp
2018-Feb-21 19:28N 37°58' E 023°37'0 0.7
2018-Feb-21 19:01N 37°57' E 023°36'1 2.2
2018-Feb-21 18:26N 37°57' E 023°35'0 0.0
2018-Feb-21 18:00N 37°57' E 023°35'0 0.0
2018-Feb-21 17:30N 37°57' E 023°35'0 0.0
2018-Feb-21 16:59N 37°57' E 023°35'0 0.0
2018-Feb-21 16:30N 37°57' E 023°35'0 0.0
2018-Feb-21 16:00N 37°57' E 023°35'0 0.0
2018-Feb-21 15:27N 37°57' E 023°35'0 0.0
2018-Feb-21 15:00N 37°57' E 023°35'0 0.2
2018-Feb-21 14:30N 37°57' E 023°35'2 4.8
2018-Feb-21 14:00N 37°56' E 023°38'0 0.9
2018-Feb-21 13:28N 37°57' E 023°38'0 0.0
2018-Feb-21 12:59N 37°57' E 023°38'0 0.0
2018-Feb-21 12:30N 37°57' E 023°38'0 0.0
2018-Feb-21 12:00N 37°57' E 023°38'0 0.0
2018-Feb-21 11:30N 37°57' E 023°38'0 0.0
2018-Feb-21 11:00N 37°57' E 023°38'0 0.0
2018-Feb-21 10:30N 37°57' E 023°38'0 0.0
2018-Feb-21 10:00N 37°57' E 023°38'0 0.0
2018-Feb-21 09:30N 37°57' E 023°38'0 0.5
2018-Feb-21 09:00N 37°56' E 023°38'0 0.0
2018-Feb-21 08:27N 37°56' E 023°38'0 0.0
2018-Feb-21 08:00N 37°56' E 023°38'0 0.0
2018-Feb-21 07:30N 37°56' E 023°38'0 0.9
2018-Feb-21 07:00N 37°56' E 023°37'3 5.2
2018-Feb-21 06:30N 37°57' E 023°34'2 4.4
2018-Feb-21 06:00N 37°59' E 023°33'3 5.3
2018-Feb-21 05:30N 38°01' E 023°35'1 1.4
2018-Feb-21 04:50N 38°02' E 023°36'0 0.0
2018-Feb-21 04:20N 38°02' E 023°36'0 0.0
2018-Feb-21 03:50N 38°02' E 023°36'0 0.0
2018-Feb-21 03:26N 38°02' E 023°36'0 0.0
2018-Feb-21 02:50N 38°02' E 023°36'0 0.0
2018-Feb-21 02:26N 38°02' E 023°36'0 0.0
2018-Feb-21 01:50N 38°02' E 023°36'0 0.0
2018-Feb-21 01:26N 38°02' E 023°36'0 0.0
2018-Feb-21 00:56N 38°02' E 023°36'0 0.0
2018-Feb-21 00:26N 38°02' E 023°36'0 0.0
2018-Feb-20 23:56N 38°02' E 023°36'0 0.0
2018-Feb-20 23:17N 38°02' E 023°36'1 1.3
2018-Feb-20 22:45N 38°02' E 023°35'0 0.0
2018-Feb-20 22:30N 38°02' E 023°35'0 0.0
2018-Feb-20 21:48N 38°02' E 023°35'0 0.0
2018-Feb-20 21:27N 38°02' E 023°35'0 0.0
2018-Feb-20 20:51N 38°02' E 023°35'0 0.0
2018-Feb-20 19:43N 38°02' E 023°35'1 4.3
2018-Feb-20 19:30N 38°01' E 023°34'3 4.0
2018-Feb-20 18:50N 38°02' E 023°31'0 0.0
2018-Feb-20 18:29N 38°02' E 023°31'0 0.0
2018-Feb-20 17:47N 38°02' E 023°31'0 0.0
2018-Feb-20 17:29N 38°02' E 023°31'0 0.0
2018-Feb-20 16:59N 38°02' E 023°31'0 0.0
2018-Feb-20 16:26N 38°02' E 023°31'0 0.0
2018-Feb-20 16:01N 38°02' E 023°31'0 0.0
2018-Feb-20 15:30N 38°02' E 023°31'1 1.8
2018-Feb-20 15:00N 38°01' E 023°31'3 5.8
2018-Feb-20 14:30N 37°59' E 023°33'2 4.9
2018-Feb-20 14:00N 37°57' E 023°35'2 4.7
2018-Feb-20 13:30N 37°56' E 023°38'0 0.9
2018-Feb-20 12:59N 37°57' E 023°38'0 0.0
2018-Feb-20 12:30N 37°57' E 023°38'0 0.0
2018-Feb-20 12:00N 37°57' E 023°38'0 0.0
2018-Feb-20 11:30N 37°57' E 023°38'0 0.0
2018-Feb-20 11:00N 37°57' E 023°38'0 0.0
2018-Feb-20 10:30N 37°57' E 023°38'0 0.0
2018-Feb-20 10:00N 37°57' E 023°38'0 0.4
2018-Feb-20 09:30N 37°57' E 023°38'0 0.0
2018-Feb-20 09:00N 37°57' E 023°38'0 0.0
2018-Feb-20 08:30N 37°57' E 023°38'0 0.0
2018-Feb-20 08:00N 37°57' E 023°38'0 0.0
2018-Feb-20 07:27N 37°57' E 023°38'0 0.0
2018-Feb-20 07:00N 37°57' E 023°38'1 1.9
2018-Feb-20 06:30N 37°56' E 023°37'1 2.5
2018-Feb-20 05:59N 37°58' E 023°37'0 0.0
2018-Feb-20 05:26N 37°58' E 023°37'0 0.0
2018-Feb-20 04:58N 37°58' E 023°37'0 0.0
2018-Feb-20 04:28N 37°58' E 023°37'0 0.0
2018-Feb-20 03:58N 37°58' E 023°37'0 0.0
2018-Feb-20 03:28N 37°58' E 023°37'0 0.0
2018-Feb-20 02:58N 37°58' E 023°37'0 0.0
2018-Feb-20 02:28N 37°58' E 023°37'0 0.0
2018-Feb-20 01:58N 37°58' E 023°37'0 0.0
2018-Feb-20 01:28N 37°58' E 023°37'0 0.0
2018-Feb-20 00:58N 37°58' E 023°37'0 0.0
2018-Feb-20 00:25N 37°58' E 023°37'0 0.0
2018-Feb-19 23:58N 37°58' E 023°37'0 0.0
2018-Feb-19 23:25N 37°58' E 023°37'0 0.0
2018-Feb-19 22:58N 37°58' E 023°37'0 0.0
2018-Feb-19 22:25N 37°58' E 023°37'0 0.0
2018-Feb-19 21:58N 37°58' E 023°37'0 0.0
2018-Feb-19 21:25N 37°58' E 023°37'0 0.0
2018-Feb-19 20:58N 37°58' E 023°37'0 0.0
2018-Feb-19 20:28N 37°58' E 023°37'0 0.0
2018-Feb-19 19:58N 37°58' E 023°37'0 0.0
2018-Feb-19 19:25N 37°58' E 023°37'0 0.0
2018-Feb-19 18:55N 37°58' E 023°37'0 0.0
2018-Feb-19 18:28N 37°58' E 023°37'0 0.0
2018-Feb-19 17:58N 37°58' E 023°37'0 0.0
2018-Feb-19 17:28N 37°58' E 023°37'0 0.0
2018-Feb-19 16:58N 37°58' E 023°37'0 0.0
2018-Feb-19 16:28N 37°58' E 023°37'0 0.0
2018-Feb-19 15:58N 37°58' E 023°37'0 0.0
2018-Feb-19 15:28N 37°58' E 023°37'0 0.0
2018-Feb-19 14:58N 37°58' E 023°37'0 0.0
2018-Feb-19 14:28N 37°58' E 023°37'0 0.0
2018-Feb-19 13:58N 37°58' E 023°37'0 0.0
2018-Feb-19 13:28N 37°58' E 023°37'0 0.0
2018-Feb-19 12:58N 37°58' E 023°37'0 0.0
2018-Feb-19 12:28N 37°58' E 023°37'0 0.0
2018-Feb-19 11:55N 37°58' E 023°37'0 0.0
2018-Feb-19 11:28N 37°58' E 023°37'0 0.0
2018-Feb-19 10:58N 37°58' E 023°37'0 0.0
2018-Feb-19 10:28N 37°58' E 023°37'0 0.0
2018-Feb-19 09:58N 37°58' E 023°37'0 0.0
2018-Feb-19 09:28N 37°58' E 023°37'0 0.0
2018-Feb-19 08:52N 37°58' E 023°37'0 0.0
2018-Feb-19 08:25N 37°58' E 023°37'0 0.0
2018-Feb-19 07:58N 37°58' E 023°37'0 0.0
2018-Feb-19 07:28N 37°58' E 023°37'0 0.0
2018-Feb-19 06:58N 37°58' E 023°37'0 0.0
2018-Feb-19 06:28N 37°58' E 023°37'0 0.0
2018-Feb-19 05:58N 37°58' E 023°37'0 0.0
2018-Feb-19 05:25N 37°58' E 023°37'0 0.0
2018-Feb-19 04:58N 37°58' E 023°37'0 0.0
2018-Feb-19 04:28N 37°58' E 023°37'0 0.0
2018-Feb-19 03:58N 37°58' E 023°37'0 0.0
2018-Feb-19 03:28N 37°58' E 023°37'0 0.0
2018-Feb-19 02:58N 37°58' E 023°37'0 0.0
2018-Feb-19 02:25N 37°58' E 023°37'0 0.0
2018-Feb-19 01:58N 37°58' E 023°37'0 0.0
2018-Feb-19 01:28N 37°58' E 023°37'0 0.0
2018-Feb-19 00:58N 37°58' E 023°37'0 0.0
2018-Feb-19 00:25N 37°58' E 023°37'0 0.0
2018-Feb-18 23:58N 37°58' E 023°37'0 0.0
2018-Feb-18 23:28N 37°58' E 023°37'0 0.0
2018-Feb-18 22:58N 37°58' E 023°37'0 0.0
2018-Feb-18 22:28N 37°58' E 023°37'0 0.0
2018-Feb-18 21:58N 37°58' E 023°37'0 0.5
2018-Feb-18 21:25N 37°58' E 023°36'0 0.0
2018-Feb-18 20:58N 37°58' E 023°36'0 0.0
2018-Feb-18 20:28N 37°58' E 023°36'0 0.0
2018-Feb-18 19:58N 37°58' E 023°36'0 0.0
2018-Feb-18 19:28N 37°58' E 023°36'0 0.0
2018-Feb-18 18:58N 37°58' E 023°36'0 0.3
2018-Feb-18 18:29N 37°58' E 023°37'0 0.2
2018-Feb-18 17:59N 37°58' E 023°37'0 0.0
2018-Feb-18 17:30N 37°58' E 023°37'0 0.0
2018-Feb-18 16:58N 37°58' E 023°37'0 0.0
2018-Feb-18 16:28N 37°58' E 023°37'0 0.0
2018-Feb-18 15:58N 37°58' E 023°37'0 0.0
2018-Feb-18 15:28N 37°58' E 023°37'0 0.0
2018-Feb-18 14:58N 37°58' E 023°37'0 0.0
2018-Feb-18 14:25N 37°58' E 023°37'0 0.0
2018-Feb-18 13:58N 37°58' E 023°37'0 0.0
2018-Feb-18 13:28N 37°58' E 023°37'0 0.0
2018-Feb-18 12:58N 37°58' E 023°37'0 0.0
2018-Feb-18 12:28N 37°58' E 023°37'0 0.0
2018-Feb-18 11:58N 37°58' E 023°37'0 0.0
2018-Feb-18 11:28N 37°58' E 023°37'0 0.0
2018-Feb-18 10:58N 37°58' E 023°37'0 0.0
2018-Feb-18 10:28N 37°58' E 023°37'0 0.0
2018-Feb-18 09:58N 37°58' E 023°37'0 0.0
2018-Feb-18 09:28N 37°58' E 023°37'0 0.0
2018-Feb-18 08:58N 37°58' E 023°37'0 0.0
2018-Feb-18 08:28N 37°58' E 023°37'0 0.0
2018-Feb-18 07:58N 37°58' E 023°37'0 0.0
2018-Feb-18 07:28N 37°58' E 023°37'0 0.0
2018-Feb-18 06:58N 37°58' E 023°37'0 0.0
2018-Feb-18 06:28N 37°58' E 023°37'0 0.0
2018-Feb-18 05:58N 37°58' E 023°37'0 0.0
2018-Feb-18 05:28N 37°58' E 023°37'0 0.0
2018-Feb-18 04:58N 37°58' E 023°37'0 0.0
2018-Feb-18 04:28N 37°58' E 023°37'0 0.0
2018-Feb-18 03:58N 37°58' E 023°37'0 0.0
2018-Feb-18 03:28N 37°58' E 023°37'0 0.0
2018-Feb-18 02:58N 37°58' E 023°37'0 0.0
2018-Feb-18 02:25N 37°58' E 023°37'0 0.0
2018-Feb-18 01:58N 37°58' E 023°37'0 0.0
2018-Feb-18 01:28N 37°58' E 023°37'0 0.0
2018-Feb-18 00:58N 37°58' E 023°37'0 0.0
2018-Feb-18 00:28N 37°58' E 023°37'0 0.0
2018-Feb-17 23:58N 37°58' E 023°37'0 0.0
2018-Feb-17 23:28N 37°58' E 023°37'0 0.0
2018-Feb-17 22:58N 37°58' E 023°37'0 0.0
2018-Feb-17 22:28N 37°58' E 023°37'0 0.0
2018-Feb-17 21:58N 37°58' E 023°37'0 0.0
2018-Feb-17 21:28N 37°58' E 023°37'0 0.0
2018-Feb-17 20:58N 37°58' E 023°37'0 0.0
2018-Feb-17 20:25N 37°58' E 023°37'0 0.0
2018-Feb-17 19:58N 37°58' E 023°37'0 0.0
2018-Feb-17 19:28N 37°58' E 023°37'0 0.0
2018-Feb-17 18:58N 37°58' E 023°37'0 0.0
2018-Feb-17 18:28N 37°58' E 023°37'0 0.0
2018-Feb-17 17:58N 37°58' E 023°37'0 0.0
2018-Feb-17 17:28N 37°58' E 023°37'0 0.0
2018-Feb-17 16:58N 37°58' E 023°37'0 0.0
2018-Feb-17 16:28N 37°58' E 023°37'0 0.0
2018-Feb-17 15:58N 37°58' E 023°37'0 0.0
2018-Feb-17 15:28N 37°58' E 023°37'0 0.0
2018-Feb-17 14:55N 37°58' E 023°37'0 0.0
2018-Feb-17 14:28N 37°58' E 023°37'0 0.0
2018-Feb-17 13:55N 37°58' E 023°37'0 0.0
2018-Feb-17 13:28N 37°58' E 023°37'0 0.0
2018-Feb-17 12:58N 37°58' E 023°37'0 0.0
2018-Feb-17 12:28N 37°58' E 023°37'0 0.0
2018-Feb-17 11:58N 37°58' E 023°37'0 0.0
2018-Feb-17 11:28N 37°58' E 023°37'0 0.0
2018-Feb-17 10:58N 37°58' E 023°37'0 0.0
2018-Feb-17 10:25N 37°58' E 023°37'0 0.0
2018-Feb-17 09:58N 37°58' E 023°37'0 0.0
2018-Feb-17 09:28N 37°58' E 023°37'0 0.0
2018-Feb-17 08:52N 37°58' E 023°37'0 0.0
2018-Feb-17 08:28N 37°58' E 023°37'0 0.0
2018-Feb-17 07:58N 37°58' E 023°37'2 3.5
2018-Feb-17 07:30N 37°57' E 023°35'1 2.2
2018-Feb-17 07:00N 37°57' E 023°33'3 5.3
2018-Feb-17 06:30N 37°60' E 023°33'3 4.4
2018-Feb-17 05:55N 38°02' E 023°31'0 0.0
2018-Feb-17 04:07N 38°02' E 023°31'0 0.0
2018-Feb-17 03:49N 38°02' E 023°31'0 0.0
2018-Feb-17 03:28N 38°02' E 023°31'0 0.0
2018-Feb-17 02:52N 38°02' E 023°31'0 0.0
2018-Feb-17 02:28N 38°02' E 023°31'0 0.1
2018-Feb-17 01:58N 38°02' E 023°31'2 4.0
2018-Feb-17 01:30N 38°01' E 023°33'2 4.7
2018-Feb-17 00:59N 38°02' E 023°36'0 0.0
2018-Feb-17 00:29N 38°02' E 023°36'0 0.0
2018-Feb-16 23:56N 38°02' E 023°36'0 0.0
2018-Feb-16 23:29N 38°02' E 023°36'0 0.0
2018-Feb-16 22:59N 38°02' E 023°36'0 0.0
2018-Feb-16 22:29N 38°02' E 023°36'0 0.0
2018-Feb-16 21:59N 38°02' E 023°36'0 0.0
2018-Feb-16 21:29N 38°02' E 023°36'0 0.0
2018-Feb-16 20:41N 38°02' E 023°36'0 0.0
2018-Feb-16 20:29N 38°02' E 023°36'0 0.0
2018-Feb-16 19:56N 38°02' E 023°36'0 0.0
2018-Feb-16 19:29N 38°02' E 023°36'0 0.0
2018-Feb-16 18:59N 38°02' E 023°36'0 0.0
2018-Feb-16 18:11N 38°02' E 023°36'0 0.0
2018-Feb-16 17:59N 38°02' E 023°36'0 0.2
2018-Feb-16 17:28N 38°02' E 023°36'1 1.1
2018-Feb-16 16:55N 38°02' E 023°35'2 4.9
2018-Feb-16 16:30N 38°00' E 023°33'3 5.0
2018-Feb-16 16:01N 37°58' E 023°33'2 3.6
2018-Feb-16 15:30N 37°57' E 023°35'0 0.0
2018-Feb-16 15:00N 37°57' E 023°35'0 0.0
2018-Feb-16 14:29N 37°57' E 023°35'0 0.0
2018-Feb-16 14:00N 37°57' E 023°35'0 0.0
2018-Feb-16 13:30N 37°57' E 023°35'0 0.0
2018-Feb-16 12:59N 37°57' E 023°35'0 0.0
2018-Feb-16 12:30N 37°57' E 023°35'0 0.0
2018-Feb-16 11:59N 37°57' E 023°35'0 0.0
2018-Feb-16 11:30N 37°57' E 023°35'0 0.1
2018-Feb-16 11:00N 37°57' E 023°35'0 0.0
2018-Feb-16 10:30N 37°57' E 023°35'0 0.1
2018-Feb-16 10:00N 37°57' E 023°35'2 4.3
2018-Feb-16 09:30N 37°56' E 023°37'1 1.6
2018-Feb-16 09:01N 37°57' E 023°38'0 0.0
2018-Feb-16 08:31N 37°57' E 023°38'0 0.0
2018-Feb-16 08:00N 37°57' E 023°38'0 0.0
2018-Feb-16 07:30N 37°57' E 023°38'0 0.0
2018-Feb-16 07:01N 37°57' E 023°38'0 0.2
2018-Feb-16 06:29N 37°57' E 023°38'2 4.0
2018-Feb-16 06:01N 37°57' E 023°36'1 1.5
2018-Feb-16 05:30N 37°58' E 023°37'0 0.0
2018-Feb-16 04:53N 37°58' E 023°37'0 0.0
2018-Feb-16 04:26N 37°58' E 023°37'0 0.0
2018-Feb-16 03:59N 37°58' E 023°37'0 0.0
2018-Feb-16 03:29N 37°58' E 023°37'0 0.0
2018-Feb-16 02:56N 37°58' E 023°37'0 0.0
2018-Feb-16 02:29N 37°58' E 023°37'0 0.0
2018-Feb-16 01:59N 37°58' E 023°37'0 0.0
2018-Feb-16 01:29N 37°58' E 023°37'0 0.0
2018-Feb-16 00:59N 37°58' E 023°37'0 0.0
2018-Feb-16 00:29N 37°58' E 023°37'0 0.0
2018-Feb-15 23:59N 37°58' E 023°37'0 0.0
2018-Feb-15 23:29N 37°58' E 023°37'0 0.0
2018-Feb-15 22:59N 37°58' E 023°37'0 0.0
2018-Feb-15 22:29N 37°58' E 023°37'0 0.0
2018-Feb-15 21:59N 37°58' E 023°37'0 0.0
2018-Feb-15 21:29N 37°58' E 023°37'0 0.0
2018-Feb-15 20:59N 37°58' E 023°37'0 0.0
2018-Feb-15 20:29N 37°58' E 023°37'0 0.0
2018-Feb-15 19:59N 37°58' E 023°37'0 0.0
2018-Feb-15 19:29N 37°58' E 023°37'0 0.0
2018-Feb-15 18:59N 37°58' E 023°37'0 0.0
2018-Feb-15 18:29N 37°58' E 023°37'0 0.0
2018-Feb-15 17:56N 37°58' E 023°37'0 0.0
2018-Feb-15 17:29N 37°58' E 023°37'0 0.0
2018-Feb-15 16:59N 37°58' E 023°37'0 0.0
2018-Feb-15 16:29N 37°58' E 023°37'0 0.0
2018-Feb-15 15:59N 37°58' E 023°37'0 0.0
2018-Feb-15 15:29N 37°58' E 023°37'0 0.0
2018-Feb-15 14:59N 37°58' E 023°37'0 0.0
2018-Feb-15 14:26N 37°58' E 023°37'0 0.0
2018-Feb-15 13:56N 37°58' E 023°37'0 0.0
2018-Feb-15 13:29N 37°58' E 023°37'0 0.0
2018-Feb-15 12:59N 37°58' E 023°37'0 0.0
2018-Feb-15 12:20N 37°58' E 023°37'0 0.0
2018-Feb-15 11:59N 37°58' E 023°37'0 0.4
2018-Feb-15 11:30N 37°57' E 023°36'1 2.7
2018-Feb-15 11:00N 37°56' E 023°38'1 1.2
2018-Feb-15 10:27N 37°57' E 023°38'0 0.0
2018-Feb-15 10:00N 37°57' E 023°38'0 0.0
2018-Feb-15 09:29N 37°57' E 023°38'0 0.0
2018-Feb-15 09:00N 37°57' E 023°38'0 0.0
2018-Feb-15 08:31N 37°57' E 023°38'0 0.2
2018-Feb-15 08:00N 37°57' E 023°38'2 3.9
2018-Feb-15 07:30N 37°57' E 023°36'1 1.6
2018-Feb-15 06:59N 37°58' E 023°37'0 0.0
2018-Feb-14 15:30N 37°58' E 023°37'1 1.1
2018-Feb-14 15:00N 37°57' E 023°36'0 0.0
2018-Feb-14 14:28N 37°57' E 023°36'0 0.0
2018-Feb-14 14:00N 37°57' E 023°36'0 0.0
2018-Feb-14 13:28N 37°57' E 023°36'0 0.2
2018-Feb-14 12:58N 37°57' E 023°36'1 1.1
2018-Feb-14 12:29N 37°58' E 023°37'0 0.1
2018-Feb-14 11:59N 37°58' E 023°37'0 0.0
2018-Feb-14 11:30N 37°58' E 023°37'0 0.0
2018-Feb-14 10:58N 37°58' E 023°37'0 0.0
2018-Feb-14 10:28N 37°58' E 023°37'0 0.0
2018-Feb-14 09:58N 37°58' E 023°37'0 0.0
2018-Feb-14 09:28N 37°58' E 023°37'0 0.0
2018-Feb-14 08:58N 37°58' E 023°37'0 0.0
2018-Feb-14 08:28N 37°58' E 023°37'0 0.0
2018-Feb-14 07:58N 37°58' E 023°37'1 1.6
2018-Feb-14 07:30N 37°57' E 023°36'3 5.1
2018-Feb-14 07:01N 37°58' E 023°33'3 5.3
2018-Feb-14 06:30N 38°00' E 023°33'1 2.4
2018-Feb-14 05:58N 38°01' E 023°35'0 0.0
2018-Feb-14 05:28N 38°01' E 023°35'0 0.0
2018-Feb-14 04:55N 38°01' E 023°35'1 1.3
2018-Feb-14 04:30N 38°01' E 023°35'1 0.2
2018-Feb-14 01:32N 38°02' E 023°36'0 0.0
2018-Feb-13 22:44N 38°02' E 023°36'0 0.0
2018-Feb-13 22:23N 38°02' E 023°36'0 0.0
2018-Feb-13 19:23N 38°02' E 023°36'1 3.4
2018-Feb-13 19:00N 38°01' E 023°34'3 5.3
2018-Feb-13 18:30N 38°02' E 023°31'0 0.1
2018-Feb-13 13:56N 38°02' E 023°31'1 1.0
2018-Feb-13 13:25N 38°02' E 023°31'0 0.0
2018-Feb-13 12:58N 38°02' E 023°31'0 0.8
2018-Feb-13 12:31N 38°02' E 023°32'0 0.6
2018-Feb-13 11:54N 38°02' E 023°32'0 0.2
2018-Feb-13 11:29N 38°02' E 023°32'0 0.5
2018-Feb-13 11:00N 38°01' E 023°32'3 5.9
2018-Feb-13 10:30N 37°59' E 023°33'3 5.0
2018-Feb-13 10:00N 37°56' E 023°35'3 6.3
2018-Feb-13 09:30N 37°54' E 023°33'3 5.9
2018-Feb-13 09:00N 37°51' E 023°31'0 0.1
2018-Feb-13 08:29N 37°51' E 023°31'0 0.1
2018-Feb-13 07:59N 37°51' E 023°31'0 0.1
2018-Feb-13 07:29N 37°51' E 023°31'0 0.0
2018-Feb-13 06:59N 37°51' E 023°31'0 0.1
2018-Feb-13 06:29N 37°51' E 023°31'0 0.0
2018-Feb-13 05:59N 37°51' E 023°31'0 0.1
2018-Feb-13 05:29N 37°51' E 023°31'0 0.1
2018-Feb-13 04:59N 37°51' E 023°31'2 4.6
2018-Feb-13 04:30N 37°53' E 023°33'3 5.8
2018-Feb-13 04:00N 37°55' E 023°34'3 5.5
2018-Feb-13 03:31N 37°57' E 023°37'0 0.2
2018-Feb-13 02:56N 37°58' E 023°37'0 0.0
2018-Feb-13 02:29N 37°58' E 023°37'0 0.0
2018-Feb-13 01:59N 37°58' E 023°37'0 0.0
2018-Feb-13 01:26N 37°58' E 023°37'0 0.0
2018-Feb-13 00:59N 37°58' E 023°37'0 0.0
2018-Feb-13 00:29N 37°58' E 023°37'0 0.0
2018-Feb-12 23:59N 37°58' E 023°37'0 0.0
2018-Feb-12 23:29N 37°58' E 023°37'1 1.1
2018-Feb-12 23:00N 37°57' E 023°36'1 1.9
2018-Feb-12 22:28N 37°57' E 023°35'0 0.0
2018-Feb-12 21:58N 37°57' E 023°35'0 0.0
2018-Feb-12 21:28N 37°57' E 023°35'0 0.0
2018-Feb-12 21:00N 37°57' E 023°35'0 0.0
2018-Feb-12 20:30N 37°57' E 023°35'0 0.0
2018-Feb-12 19:57N 37°57' E 023°35'0 0.3
2018-Feb-12 19:30N 37°57' E 023°35'1 2.2
2018-Feb-12 18:58N 37°58' E 023°36'0 0.0
2018-Feb-12 18:28N 37°58' E 023°36'0 0.0
2018-Feb-12 17:58N 37°58' E 023°36'0 0.0
2018-Feb-12 17:28N 37°58' E 023°36'0 0.0
2018-Feb-12 16:55N 37°58' E 023°36'1 1.6
2018-Feb-12 16:30N 37°57' E 023°36'3 5.1
2018-Feb-12 16:00N 37°58' E 023°33'3 5.3
2018-Feb-12 15:30N 38°01' E 023°34'2 3.7
2018-Feb-12 15:00N 38°02' E 023°36'0 0.0
2018-Feb-12 14:29N 38°02' E 023°36'0 0.0
2018-Feb-12 14:00N 38°02' E 023°36'0 0.0
2018-Feb-12 13:30N 38°02' E 023°36'0 0.0
2018-Feb-12 12:53N 38°02' E 023°36'0 0.0
2018-Feb-12 12:29N 38°02' E 023°36'0 0.0
2018-Feb-12 12:00N 38°02' E 023°36'0 0.0
2018-Feb-12 11:24N 38°02' E 023°36'0 0.0
2018-Feb-12 10:58N 38°02' E 023°36'0 0.0
2018-Feb-12 10:30N 38°02' E 023°36'0 0.0
2018-Feb-12 09:50N 38°02' E 023°36'0 0.0
2018-Feb-12 09:30N 38°02' E 023°36'0 0.0
2018-Feb-12 08:38N 38°02' E 023°36'0 0.0
2018-Feb-12 07:53N 38°02' E 023°36'0 0.0
2018-Feb-12 07:23N 38°02' E 023°36'0 0.4
2018-Feb-12 07:00N 38°02' E 023°36'1 0.8
2018-Feb-12 06:14N 38°01' E 023°35'0 1.1
2018-Feb-12 06:00N 38°01' E 023°35'3 5.4
2018-Feb-12 05:30N 37°59' E 023°33'2 3.8
2018-Feb-12 04:57N 37°57' E 023°35'0 0.0
2018-Feb-12 04:30N 37°57' E 023°35'0 0.0
2018-Feb-12 04:00N 37°57' E 023°35'0 0.1
2018-Feb-12 03:30N 37°57' E 023°35'0 0.0
2018-Feb-12 03:00N 37°57' E 023°35'0 0.0
2018-Feb-12 02:30N 37°57' E 023°35'0 0.0
2018-Feb-12 02:00N 37°57' E 023°35'0 0.0
2018-Feb-12 01:29N 37°57' E 023°35'0 0.0
2018-Feb-12 00:59N 37°57' E 023°35'0 0.0
2018-Feb-12 00:29N 37°57' E 023°35'0 0.0
2018-Feb-11 23:59N 37°57' E 023°35'0 0.0
2018-Feb-11 23:29N 37°57' E 023°35'0 0.0
2018-Feb-11 22:56N 37°57' E 023°35'0 0.1
2018-Feb-11 22:29N 37°57' E 023°35'0 0.1
2018-Feb-11 21:59N 37°57' E 023°35'0 0.1
2018-Feb-11 21:30N 37°57' E 023°34'1 1.2
2018-Feb-11 20:56N 37°57' E 023°35'0 0.0
2018-Feb-11 20:26N 37°57' E 023°35'0 0.0
2018-Feb-11 20:00N 37°57' E 023°35'0 0.0
2018-Feb-11 19:29N 37°57' E 023°35'  
Track history (hours):
 
Tides and Currents Weather Stations Pressure Air Temp Water Temp Dewpoint Dewpoint Depression Visibility Wind Speed Wind Dir Waves Ship Positions

Agios_nektarios

Last reported at 2018-Feb-21 19:28 UTC. Time now 2018-Feb-21 19:46 UTC.
Position N 37°58' E 023°37'.

Length 53 m; draft 4.9 m.

Type: Tanker. MMSI: 237183800.

Date/timePositionNaut miles runAvg speedWind from/ knotsBaromVisibWave heightAir tempDewpointWater temp
2018-Feb-21 19:28N 37°58' E 023°37'0 0.7
2018-Feb-21 19:01N 37°57' E 023°36'1 2.2
2018-Feb-21 18:26N 37°57' E 023°35'0 0.0
2018-Feb-21 18:00N 37°57' E 023°35'0 0.0
2018-Feb-21 17:30N 37°57' E 023°35'0 0.0
2018-Feb-21 16:59N 37°57' E 023°35'0 0.0
2018-Feb-21 16:30N 37°57' E 023°35'0 0.0
2018-Feb-21 16:00N 37°57' E 023°35'0 0.0
2018-Feb-21 15:27N 37°57' E 023°35'0 0.0
2018-Feb-21 15:00N 37°57' E 023°35'0 0.2
2018-Feb-21 14:30N 37°57' E 023°35'2 4.8
2018-Feb-21 14:00N 37°56' E 023°38'0 0.9
2018-Feb-21 13:28N 37°57' E 023°38'0 0.0
2018-Feb-21 12:59N 37°57' E 023°38'0 0.0
2018-Feb-21 12:30N 37°57' E 023°38'0 0.0
2018-Feb-21 12:00N 37°57' E 023°38'0 0.0
2018-Feb-21 11:30N 37°57' E 023°38'0 0.0
2018-Feb-21 11:00N 37°57' E 023°38'0 0.0
2018-Feb-21 10:30N 37°57' E 023°38'0 0.0
2018-Feb-21 10:00N 37°57' E 023°38'0 0.0
2018-Feb-21 09:30N 37°57' E 023°38'0 0.5
2018-Feb-21 09:00N 37°56' E 023°38'0 0.0
2018-Feb-21 08:27N 37°56' E 023°38'0 0.0
2018-Feb-21 08:00N 37°56' E 023°38'0 0.0
2018-Feb-21 07:30N 37°56' E 023°38'0 0.9
2018-Feb-21 07:00N 37°56' E 023°37'3 5.2
2018-Feb-21 06:30N 37°57' E 023°34'2 4.4
2018-Feb-21 06:00N 37°59' E 023°33'3 5.3
2018-Feb-21 05:30N 38°01' E 023°35'1 1.4
2018-Feb-21 04:50N 38°02' E 023°36'0 0.0
2018-Feb-21 04:20N 38°02' E 023°36'0 0.0
2018-Feb-21 03:50N 38°02' E 023°36'0 0.0
2018-Feb-21 03:26N 38°02' E 023°36'0 0.0
2018-Feb-21 02:50N 38°02' E 023°36'0 0.0
2018-Feb-21 02:26N 38°02' E 023°36'0 0.0
2018-Feb-21 01:50N 38°02' E 023°36'0 0.0
2018-Feb-21 01:26N 38°02' E 023°36'0 0.0
2018-Feb-21 00:56N 38°02' E 023°36'0 0.0
2018-Feb-21 00:26N 38°02' E 023°36'0 0.0
2018-Feb-20 23:56N 38°02' E 023°36'0 0.0
2018-Feb-20 23:17N 38°02' E 023°36'1 1.3
2018-Feb-20 22:45N 38°02' E 023°35'0 0.0
2018-Feb-20 22:30N 38°02' E 023°35'0 0.0
2018-Feb-20 21:48N 38°02' E 023°35'0 0.0
2018-Feb-20 21:27N 38°02' E 023°35'0 0.0
2018-Feb-20 20:51N 38°02' E 023°35'0 0.0
2018-Feb-20 19:43N 38°02' E 023°35'1 4.3
2018-Feb-20 19:30N 38°01' E 023°34'3 4.0
2018-Feb-20 18:50N 38°02' E 023°31'0 0.0
2018-Feb-20 18:29N 38°02' E 023°31'0 0.0
2018-Feb-20 17:47N 38°02' E 023°31'0 0.0
2018-Feb-20 17:29N 38°02' E 023°31'0 0.0
2018-Feb-20 16:59N 38°02' E 023°31'0 0.0
2018-Feb-20 16:26N 38°02' E 023°31'0 0.0
2018-Feb-20 16:01N 38°02' E 023°31'0 0.0
2018-Feb-20 15:30N 38°02' E 023°31'1 1.8
2018-Feb-20 15:00N 38°01' E 023°31'3 5.8
2018-Feb-20 14:30N 37°59' E 023°33'2 4.9
2018-Feb-20 14:00N 37°57' E 023°35'2 4.7
2018-Feb-20 13:30N 37°56' E 023°38'0 0.9
2018-Feb-20 12:59N 37°57' E 023°38'0 0.0
2018-Feb-20 12:30N 37°57' E 023°38'0 0.0
2018-Feb-20 12:00N 37°57' E 023°38'0 0.0
2018-Feb-20 11:30N 37°57' E 023°38'0 0.0
2018-Feb-20 11:00N 37°57' E 023°38'0 0.0
2018-Feb-20 10:30N 37°57' E 023°38'0 0.0
2018-Feb-20 10:00N 37°57' E 023°38'0 0.4
2018-Feb-20 09:30N 37°57' E 023°38'0 0.0
2018-Feb-20 09:00N 37°57' E 023°38'0 0.0
2018-Feb-20 08:30N 37°57' E 023°38'0 0.0
2018-Feb-20 08:00N 37°57' E 023°38'0 0.0
2018-Feb-20 07:27N 37°57' E 023°38'0 0.0
2018-Feb-20 07:00N 37°57' E 023°38'1 1.9
2018-Feb-20 06:30N 37°56' E 023°37'1 2.5
2018-Feb-20 05:59N 37°58' E 023°37'0 0.0
2018-Feb-20 05:26N 37°58' E 023°37'0 0.0
2018-Feb-20 04:58N 37°58' E 023°37'0 0.0
2018-Feb-20 04:28N 37°58' E 023°37'0 0.0
2018-Feb-20 03:58N 37°58' E 023°37'0 0.0
2018-Feb-20 03:28N 37°58' E 023°37'0 0.0
2018-Feb-20 02:58N 37°58' E 023°37'0 0.0
2018-Feb-20 02:28N 37°58' E 023°37'0 0.0
2018-Feb-20 01:58N 37°58' E 023°37'0 0.0
2018-Feb-20 01:28N 37°58' E 023°37'0 0.0
2018-Feb-20 00:58N 37°58' E 023°37'0 0.0
2018-Feb-20 00:25N 37°58' E 023°37'0 0.0
2018-Feb-19 23:58N 37°58' E 023°37'0 0.0
2018-Feb-19 23:25N 37°58' E 023°37'0 0.0
2018-Feb-19 22:58N 37°58' E 023°37'0 0.0
2018-Feb-19 22:25N 37°58' E 023°37'0 0.0
2018-Feb-19 21:58N 37°58' E 023°37'0 0.0
2018-Feb-19 21:25N 37°58' E 023°37'0 0.0
2018-Feb-19 20:58N 37°58' E 023°37'0 0.0
2018-Feb-19 20:28N 37°58' E 023°37'0 0.0
2018-Feb-19 19:58N 37°58' E 023°37'0 0.0
2018-Feb-19 19:25N 37°58' E 023°37'0 0.0
2018-Feb-19 18:55N 37°58' E 023°37'0 0.0
2018-Feb-19 18:28N 37°58' E 023°37'0 0.0
2018-Feb-19 17:58N 37°58' E 023°37'0 0.0
2018-Feb-19 17:28N 37°58' E 023°37'0 0.0
2018-Feb-19 16:58N 37°58' E 023°37'0 0.0
2018-Feb-19 16:28N 37°58' E 023°37'0 0.0
2018-Feb-19 15:58N 37°58' E 023°37'0 0.0
2018-Feb-19 15:28N 37°58' E 023°37'0 0.0
2018-Feb-19 14:58N 37°58' E 023°37'0 0.0
2018-Feb-19 14:28N 37°58' E 023°37'0 0.0
2018-Feb-19 13:58N 37°58' E 023°37'0 0.0
2018-Feb-19 13:28N 37°58' E 023°37'0 0.0
2018-Feb-19 12:58N 37°58' E 023°37'0 0.0
2018-Feb-19 12:28N 37°58' E 023°37'0 0.0
2018-Feb-19 11:55N 37°58' E 023°37'0 0.0
2018-Feb-19 11:28N 37°58' E 023°37'0 0.0
2018-Feb-19 10:58N 37°58' E 023°37'0 0.0
2018-Feb-19 10:28N 37°58' E 023°37'0 0.0
2018-Feb-19 09:58N 37°58' E 023°37'0 0.0
2018-Feb-19 09:28N 37°58' E 023°37'0 0.0
2018-Feb-19 08:52N 37°58' E 023°37'0 0.0
2018-Feb-19 08:25N 37°58' E 023°37'0 0.0
2018-Feb-19 07:58N 37°58' E 023°37'0 0.0
2018-Feb-19 07:28N 37°58' E 023°37'0 0.0
2018-Feb-19 06:58N 37°58' E 023°37'0 0.0
2018-Feb-19 06:28N 37°58' E 023°37'0 0.0
2018-Feb-19 05:58N 37°58' E 023°37'0 0.0
2018-Feb-19 05:25N 37°58' E 023°37'0 0.0
2018-Feb-19 04:58N 37°58' E 023°37'0 0.0
2018-Feb-19 04:28N 37°58' E 023°37'0 0.0
2018-Feb-19 03:58N 37°58' E 023°37'0 0.0
2018-Feb-19 03:28N 37°58' E 023°37'0 0.0
2018-Feb-19 02:58N 37°58' E 023°37'0 0.0
2018-Feb-19 02:25N 37°58' E 023°37'0 0.0
2018-Feb-19 01:58N 37°58' E 023°37'0 0.0
2018-Feb-19 01:28N 37°58' E 023°37'0 0.0
2018-Feb-19 00:58N 37°58' E 023°37'0 0.0
2018-Feb-19 00:25N 37°58' E 023°37'0 0.0
2018-Feb-18 23:58N 37°58' E 023°37'0 0.0
2018-Feb-18 23:28N 37°58' E 023°37'0 0.0
2018-Feb-18 22:58N 37°58' E 023°37'0 0.0
2018-Feb-18 22:28N 37°58' E 023°37'0 0.0
2018-Feb-18 21:58N 37°58' E 023°37'0 0.5
2018-Feb-18 21:25N 37°58' E 023°36'0 0.0
2018-Feb-18 20:58N 37°58' E 023°36'0 0.0
2018-Feb-18 20:28N 37°58' E 023°36'0 0.0
2018-Feb-18 19:58N 37°58' E 023°36'0 0.0
2018-Feb-18 19:28N 37°58' E 023°36'0 0.0
2018-Feb-18 18:58N 37°58' E 023°36'0 0.3
2018-Feb-18 18:29N 37°58' E 023°37'0 0.2
2018-Feb-18 17:59N 37°58' E 023°37'0 0.0
2018-Feb-18 17:30N 37°58' E 023°37'0 0.0
2018-Feb-18 16:58N 37°58' E 023°37'0 0.0
2018-Feb-18 16:28N 37°58' E 023°37'0 0.0
2018-Feb-18 15:58N 37°58' E 023°37'0 0.0
2018-Feb-18 15:28N 37°58' E 023°37'0 0.0
2018-Feb-18 14:58N 37°58' E 023°37'0 0.0
2018-Feb-18 14:25N 37°58' E 023°37'0 0.0
2018-Feb-18 13:58N 37°58' E 023°37'0 0.0
2018-Feb-18 13:28N 37°58' E 023°37'0 0.0
2018-Feb-18 12:58N 37°58' E 023°37'0 0.0
2018-Feb-18 12:28N 37°58' E 023°37'0 0.0
2018-Feb-18 11:58N 37°58' E 023°37'0 0.0
2018-Feb-18 11:28N 37°58' E 023°37'0 0.0
2018-Feb-18 10:58N 37°58' E 023°37'0 0.0
2018-Feb-18 10:28N 37°58' E 023°37'0 0.0
2018-Feb-18 09:58N 37°58' E 023°37'0 0.0
2018-Feb-18 09:28N 37°58' E 023°37'0 0.0
2018-Feb-18 08:58N 37°58' E 023°37'0 0.0
2018-Feb-18 08:28N 37°58' E 023°37'0 0.0
2018-Feb-18 07:58N 37°58' E 023°37'0 0.0
2018-Feb-18 07:28N 37°58' E 023°37'0 0.0
2018-Feb-18 06:58N 37°58' E 023°37'0 0.0
2018-Feb-18 06:28N 37°58' E 023°37'0 0.0
2018-Feb-18 05:58N 37°58' E 023°37'0 0.0
2018-Feb-18 05:28N 37°58' E 023°37'0 0.0
2018-Feb-18 04:58N 37°58' E 023°37'0 0.0
2018-Feb-18 04:28N 37°58' E 023°37'0 0.0
2018-Feb-18 03:58N 37°58' E 023°37'0 0.0
2018-Feb-18 03:28N 37°58' E 023°37'0 0.0
2018-Feb-18 02:58N 37°58' E 023°37'0 0.0
2018-Feb-18 02:25N 37°58' E 023°37'0 0.0
2018-Feb-18 01:58N 37°58' E 023°37'0 0.0
2018-Feb-18 01:28N 37°58' E 023°37'0 0.0
2018-Feb-18 00:58N 37°58' E 023°37'0 0.0
2018-Feb-18 00:28N 37°58' E 023°37'0 0.0
2018-Feb-17 23:58N 37°58' E 023°37'0 0.0
2018-Feb-17 23:28N 37°58' E 023°37'0 0.0
2018-Feb-17 22:58N 37°58' E 023°37'0 0.0
2018-Feb-17 22:28N 37°58' E 023°37'0 0.0
2018-Feb-17 21:58N 37°58' E 023°37'0 0.0
2018-Feb-17 21:28N 37°58' E 023°37'0 0.0
2018-Feb-17 20:58N 37°58' E 023°37'0 0.0
2018-Feb-17 20:25N 37°58' E 023°37'0 0.0
2018-Feb-17 19:58N 37°58' E 023°37'0 0.0
2018-Feb-17 19:28N 37°58' E 023°37'0 0.0
2018-Feb-17 18:58N 37°58' E 023°37'0 0.0
2018-Feb-17 18:28N 37°58' E 023°37'0 0.0
2018-Feb-17 17:58N 37°58' E 023°37'0 0.0
2018-Feb-17 17:28N 37°58' E 023°37'0 0.0
2018-Feb-17 16:58N 37°58' E 023°37'0 0.0
2018-Feb-17 16:28N 37°58' E 023°37'0 0.0
2018-Feb-17 15:58N 37°58' E 023°37'0 0.0
2018-Feb-17 15:28N 37°58' E 023°37'0 0.0
2018-Feb-17 14:55N 37°58' E 023°37'0 0.0
2018-Feb-17 14:28N 37°58' E 023°37'0 0.0
2018-Feb-17 13:55N 37°58' E 023°37'0 0.0
2018-Feb-17 13:28N 37°58' E 023°37'0 0.0
2018-Feb-17 12:58N 37°58' E 023°37'0 0.0
2018-Feb-17 12:28N 37°58' E 023°37'0 0.0
2018-Feb-17 11:58N 37°58' E 023°37'0 0.0
2018-Feb-17 11:28N 37°58' E 023°37'0 0.0
2018-Feb-17 10:58N 37°58' E 023°37'0 0.0
2018-Feb-17 10:25N 37°58' E 023°37'0 0.0
2018-Feb-17 09:58N 37°58' E 023°37'0 0.0
2018-Feb-17 09:28N 37°58' E 023°37'0 0.0
2018-Feb-17 08:52N 37°58' E 023°37'0 0.0
2018-Feb-17 08:28N 37°58' E 023°37'0 0.0
2018-Feb-17 07:58N 37°58' E 023°37'2 3.5
2018-Feb-17 07:30N 37°57' E 023°35'1 2.2
2018-Feb-17 07:00N 37°57' E 023°33'3 5.3
2018-Feb-17 06:30N 37°60' E 023°33'3 4.4
2018-Feb-17 05:55N 38°02' E 023°31'0 0.0
2018-Feb-17 04:07N 38°02' E 023°31'0 0.0
2018-Feb-17 03:49N 38°02' E 023°31'0 0.0
2018-Feb-17 03:28N 38°02' E 023°31'0 0.0
2018-Feb-17 02:52N 38°02' E 023°31'0 0.0
2018-Feb-17 02:28N 38°02' E 023°31'0 0.1
2018-Feb-17 01:58N 38°02' E 023°31'2 4.0
2018-Feb-17 01:30N 38°01' E 023°33'2 4.7
2018-Feb-17 00:59N 38°02' E 023°36'0 0.0
2018-Feb-17 00:29N 38°02' E 023°36'0 0.0
2018-Feb-16 23:56N 38°02' E 023°36'0 0.0
2018-Feb-16 23:29N 38°02' E 023°36'0 0.0
2018-Feb-16 22:59N 38°02' E 023°36'0 0.0
2018-Feb-16 22:29N 38°02' E 023°36'0 0.0
2018-Feb-16 21:59N 38°02' E 023°36'0 0.0
2018-Feb-16 21:29N 38°02' E 023°36'0 0.0
2018-Feb-16 20:41N 38°02' E 023°36'0 0.0
2018-Feb-16 20:29N 38°02' E 023°36'0 0.0
2018-Feb-16 19:56N 38°02' E 023°36'0 0.0
2018-Feb-16 19:29N 38°02' E 023°36'0 0.0
2018-Feb-16 18:59N 38°02' E 023°36'0 0.0
2018-Feb-16 18:11N 38°02' E 023°36'0 0.0
2018-Feb-16 17:59N 38°02' E 023°36'0 0.2
2018-Feb-16 17:28N 38°02' E 023°36'1 1.1
2018-Feb-16 16:55N 38°02' E 023°35'2 4.9
2018-Feb-16 16:30N 38°00' E 023°33'3 5.0
2018-Feb-16 16:01N 37°58' E 023°33'2 3.6
2018-Feb-16 15:30N 37°57' E 023°35'0 0.0
2018-Feb-16 15:00N 37°57' E 023°35'0 0.0
2018-Feb-16 14:29N 37°57' E 023°35'0 0.0
2018-Feb-16 14:00N 37°57' E 023°35'0 0.0
2018-Feb-16 13:30N 37°57' E 023°35'0 0.0
2018-Feb-16 12:59N 37°57' E 023°35'0 0.0
2018-Feb-16 12:30N 37°57' E 023°35'0 0.0
2018-Feb-16 11:59N 37°57' E 023°35'0 0.0
2018-Feb-16 11:30N 37°57' E 023°35'0 0.1
2018-Feb-16 11:00N 37°57' E 023°35'0 0.0
2018-Feb-16 10:30N 37°57' E 023°35'0 0.1
2018-Feb-16 10:00N 37°57' E 023°35'2 4.3
2018-Feb-16 09:30N 37°56' E 023°37'1 1.6
2018-Feb-16 09:01N 37°57' E 023°38'0 0.0
2018-Feb-16 08:31N 37°57' E 023°38'0 0.0
2018-Feb-16 08:00N 37°57' E 023°38'0 0.0
2018-Feb-16 07:30N 37°57' E 023°38'0 0.0
2018-Feb-16 07:01N 37°57' E 023°38'0 0.2
2018-Feb-16 06:29N 37°57' E 023°38'2 4.0
2018-Feb-16 06:01N 37°57' E 023°36'1 1.5
2018-Feb-16 05:30N 37°58' E 023°37'0 0.0
2018-Feb-16 04:53N 37°58' E 023°37'0 0.0
2018-Feb-16 04:26N 37°58' E 023°37'0 0.0
2018-Feb-16 03:59N 37°58' E 023°37'0 0.0
2018-Feb-16 03:29N 37°58' E 023°37'0 0.0
2018-Feb-16 02:56N 37°58' E 023°37'0 0.0
2018-Feb-16 02:29N 37°58' E 023°37'0 0.0
2018-Feb-16 01:59N 37°58' E 023°37'0 0.0
2018-Feb-16 01:29N 37°58' E 023°37'0 0.0
2018-Feb-16 00:59N 37°58' E 023°37'0 0.0
2018-Feb-16 00:29N 37°58' E 023°37'0 0.0
2018-Feb-15 23:59N 37°58' E 023°37'0 0.0
2018-Feb-15 23:29N 37°58' E 023°37'0 0.0
2018-Feb-15 22:59N 37°58' E 023°37'0 0.0
2018-Feb-15 22:29N 37°58' E 023°37'0 0.0
2018-Feb-15 21:59N 37°58' E 023°37'0 0.0
2018-Feb-15 21:29N 37°58' E 023°37'0 0.0
2018-Feb-15 20:59N 37°58' E 023°37'0 0.0
2018-Feb-15 20:29N 37°58' E 023°37'0 0.0
2018-Feb-15 19:59N 37°58' E 023°37'0 0.0
2018-Feb-15 19:29N 37°58' E 023°37'0 0.0
2018-Feb-15 18:59N 37°58' E 023°37'0 0.0
2018-Feb-15 18:29N 37°58' E 023°37'0 0.0
2018-Feb-15 17:56N 37°58' E 023°37'0 0.0
2018-Feb-15 17:29N 37°58' E 023°37'0 0.0
2018-Feb-15 16:59N 37°58' E 023°37'0 0.0
2018-Feb-15 16:29N 37°58' E 023°37'0 0.0
2018-Feb-15 15:59N 37°58' E 023°37'0 0.0
2018-Feb-15 15:29N 37°58' E 023°37'0 0.0
2018-Feb-15 14:59N 37°58' E 023°37'0 0.0
2018-Feb-15 14:26N 37°58' E 023°37'0 0.0
2018-Feb-15 13:56N 37°58' E 023°37'0 0.0
2018-Feb-15 13:29N 37°58' E 023°37'0 0.0
2018-Feb-15 12:59N 37°58' E 023°37'0 0.0
2018-Feb-15 12:20N 37°58' E 023°37'0 0.0
2018-Feb-15 11:59N 37°58' E 023°37'0 0.4
2018-Feb-15 11:30N 37°57' E 023°36'1 2.7
2018-Feb-15 11:00N 37°56' E 023°38'1 1.2
2018-Feb-15 10:27N 37°57' E 023°38'0 0.0
2018-Feb-15 10:00N 37°57' E 023°38'0 0.0
2018-Feb-15 09:29N 37°57' E 023°38'0 0.0
2018-Feb-15 09:00N 37°57' E 023°38'0 0.0
2018-Feb-15 08:31N 37°57' E 023°38'0 0.2
2018-Feb-15 08:00N 37°57' E 023°38'2 3.9
2018-Feb-15 07:30N 37°57' E 023°36'1 1.6
2018-Feb-15 06:59N 37°58' E 023°37'0 0.0
2018-Feb-14 15:30N 37°58' E 023°37'1 1.1
2018-Feb-14 15:00N 37°57' E 023°36'0 0.0
2018-Feb-14 14:28N 37°57' E 023°36'0 0.0
2018-Feb-14 14:00N 37°57' E 023°36'0 0.0
2018-Feb-14 13:28N 37°57' E 023°36'0 0.2
2018-Feb-14 12:58N 37°57' E 023°36'1 1.1
2018-Feb-14 12:29N 37°58' E 023°37'0 0.1
2018-Feb-14 11:59N 37°58' E 023°37'0 0.0
2018-Feb-14 11:30N 37°58' E 023°37'0 0.0
2018-Feb-14 10:58N 37°58' E 023°37'0 0.0
2018-Feb-14 10:28N 37°58' E 023°37'0 0.0
2018-Feb-14 09:58N 37°58' E 023°37'0 0.0
2018-Feb-14 09:28N 37°58' E 023°37'0 0.0
2018-Feb-14 08:58N 37°58' E 023°37'0 0.0
2018-Feb-14 08:28N 37°58' E 023°37'0 0.0
2018-Feb-14 07:58N 37°58' E 023°37'1 1.6
2018-Feb-14 07:30N 37°57' E 023°36'3 5.1
2018-Feb-14 07:01N 37°58' E 023°33'3 5.3
2018-Feb-14 06:30N 38°00' E 023°33'1 2.4
2018-Feb-14 05:58N 38°01' E 023°35'0 0.0
2018-Feb-14 05:28N 38°01' E 023°35'0 0.0
2018-Feb-14 04:55N 38°01' E 023°35'1 1.3
2018-Feb-14 04:30N 38°01' E 023°35'1 0.2
2018-Feb-14 01:32N 38°02' E 023°36'0 0.0
2018-Feb-13 22:44N 38°02' E 023°36'0 0.0
2018-Feb-13 22:23N 38°02' E 023°36'0 0.0
2018-Feb-13 19:23N 38°02' E 023°36'1 3.4
2018-Feb-13 19:00N 38°01' E 023°34'3 5.3
2018-Feb-13 18:30N 38°02' E 023°31'0 0.1
2018-Feb-13 13:56N 38°02' E 023°31'1 1.0
2018-Feb-13 13:25N 38°02' E 023°31'0 0.0
2018-Feb-13 12:58N 38°02' E 023°31'0 0.8
2018-Feb-13 12:31N 38°02' E 023°32'0 0.6
2018-Feb-13 11:54N 38°02' E 023°32'0 0.2
2018-Feb-13 11:29N 38°02' E 023°32'0 0.5
2018-Feb-13 11:00N 38°01' E 023°32'3 5.9
2018-Feb-13 10:30N 37°59' E 023°33'3 5.0
2018-Feb-13 10:00N 37°56' E 023°35'3 6.3
2018-Feb-13 09:30N 37°54' E 023°33'3 5.9
2018-Feb-13 09:00N 37°51' E 023°31'0 0.1
2018-Feb-13 08:29N 37°51' E 023°31'0 0.1
2018-Feb-13 07:59N 37°51' E 023°31'0 0.1
2018-Feb-13 07:29N 37°51' E 023°31'0 0.0
2018-Feb-13 06:59N 37°51' E 023°31'0 0.1
2018-Feb-13 06:29N 37°51' E 023°31'0 0.0
2018-Feb-13 05:59N 37°51' E 023°31'0 0.1
2018-Feb-13 05:29N 37°51' E 023°31'0 0.1
2018-Feb-13 04:59N 37°51' E 023°31'2 4.6
2018-Feb-13 04:30N 37°53' E 023°33'3 5.8
2018-Feb-13 04:00N 37°55' E 023°34'3 5.5
2018-Feb-13 03:31N 37°57' E 023°37'0 0.2
2018-Feb-13 02:56N 37°58' E 023°37'0 0.0
2018-Feb-13 02:29N 37°58' E 023°37'0 0.0
2018-Feb-13 01:59N 37°58' E 023°37'0 0.0
2018-Feb-13 01:26N 37°58' E 023°37'0 0.0
2018-Feb-13 00:59N 37°58' E 023°37'0 0.0
2018-Feb-13 00:29N 37°58' E 023°37'0 0.0
2018-Feb-12 23:59N 37°58' E 023°37'0 0.0
2018-Feb-12 23:29N 37°58' E 023°37'1 1.1
2018-Feb-12 23:00N 37°57' E 023°36'1 1.9
2018-Feb-12 22:28N 37°57' E 023°35'0 0.0
2018-Feb-12 21:58N 37°57' E 023°35'0 0.0
2018-Feb-12 21:28N 37°57' E 023°35'0 0.0
2018-Feb-12 21:00N 37°57' E 023°35'0 0.0
2018-Feb-12 20:30N 37°57' E 023°35'0 0.0
2018-Feb-12 19:57N 37°57' E 023°35'0 0.3
2018-Feb-12 19:30N 37°57' E 023°35'1 2.2
2018-Feb-12 18:58N 37°58' E 023°36'0 0.0
2018-Feb-12 18:28N 37°58' E 023°36'0 0.0
2018-Feb-12 17:58N 37°58' E 023°36'0 0.0
2018-Feb-12 17:28N 37°58' E 023°36'0 0.0
2018-Feb-12 16:55N 37°58' E 023°36'1 1.6
2018-Feb-12 16:30N 37°57' E 023°36'3 5.1
2018-Feb-12 16:00N 37°58' E 023°33'3 5.3
2018-Feb-12 15:30N 38°01' E 023°34'2 3.7
2018-Feb-12 15:00N 38°02' E 023°36'0 0.0
2018-Feb-12 14:29N 38°02' E 023°36'0 0.0
2018-Feb-12 14:00N 38°02' E 023°36'0 0.0
2018-Feb-12 13:30N 38°02' E 023°36'0 0.0
2018-Feb-12 12:53N 38°02' E 023°36'0 0.0
2018-Feb-12 12:29N 38°02' E 023°36'0 0.0
2018-Feb-12 12:00N 38°02' E 023°36'0 0.0
2018-Feb-12 11:24N 38°02' E 023°36'0 0.0
2018-Feb-12 10:58N 38°02' E 023°36'0 0.0
2018-Feb-12 10:30N 38°02' E 023°36'0 0.0
2018-Feb-12 09:50N 38°02' E 023°36'0 0.0
2018-Feb-12 09:30N 38°02' E 023°36'0 0.0
2018-Feb-12 08:38N 38°02' E 023°36'0 0.0
2018-Feb-12 07:53N 38°02' E 023°36'0 0.0
2018-Feb-12 07:23N 38°02' E 023°36'0 0.4
2018-Feb-12 07:00N 38°02' E 023°36'1 0.8
2018-Feb-12 06:14N 38°01' E 023°35'0 1.1
2018-Feb-12 06:00N 38°01' E 023°35'3 5.4
2018-Feb-12 05:30N 37°59' E 023°33'2 3.8
2018-Feb-12 04:57N 37°57' E 023°35'0 0.0
2018-Feb-12 04:30N 37°57' E 023°35'0 0.0
2018-Feb-12 04:00N 37°57' E 023°35'0 0.1
2018-Feb-12 03:30N 37°57' E 023°35'0 0.0
2018-Feb-12 03:00N 37°57' E 023°35'0 0.0
2018-Feb-12 02:30N 37°57' E 023°35'0 0.0
2018-Feb-12 02:00N 37°57' E 023°35'0 0.0
2018-Feb-12 01:29N 37°57' E 023°35'0 0.0
2018-Feb-12 00:59N 37°57' E 023°35'0 0.0
2018-Feb-12 00:29N 37°57' E 023°35'0 0.0
2018-Feb-11 23:59N 37°57' E 023°35'0 0.0
2018-Feb-11 23:29N 37°57' E 023°35'0 0.0
2018-Feb-11 22:56N 37°57' E 023°35'0 0.1
2018-Feb-11 22:29N 37°57' E 023°35'0 0.1
2018-Feb-11 21:59N 37°57' E 023°35'0 0.1
2018-Feb-11 21:30N 37°57' E 023°34'1 1.2
2018-Feb-11 20:56N 37°57' E 023°35'0 0.0
2018-Feb-11 20:26N 37°57' E 023°35'0 0.0
2018-Feb-11 20:00N 37°57' E 023°35'0 0.0
2018-Feb-11 19:29N 37°57' E 023°35'  

Dump ship's entire track history